Time;durP1;ratioP1;P1;durP2;ratioP2;P2;SDS_P1;SDS_P2;PMS_P1;PMS_P2;Temp;Humidity;BMP_temperature;BMP_pressure;BME280_temperature;BME280_humidity;BME280_pressure;Samples;Min_cycle;Max_cycle;Signal;HPM_P1;HPM_P2
2023/08/27 00:00:43;;;;;;;6.30;5.53;;;15.40;99.90;;;;;;5004458;28;20038;-65
2023/08/27 00:03:09;;;;;;;8.00;5.68;;;15.40;99.90;;;;;;5016947;28;20093;-65
2023/08/27 00:05:41;;;;;;;9.88;6.38;;;15.30;99.90;;;;;;5020569;28;20122;-65
2023/08/27 00:08:07;;;;;;;7.70;5.70;;;15.30;99.90;;;;;;5018386;28;20087;-65
2023/08/27 00:10:32;;;;;;;9.27;6.03;;;15.30;99.90;;;;;;5002817;28;20120;-65
2023/08/27 00:12:58;;;;;;;7.40;5.30;;;15.20;99.90;;;;;;5019157;28;20030;-65
2023/08/27 00:15:24;;;;;;;8.85;5.68;;;15.20;99.90;;;;;;5010387;28;20029;-65
2023/08/27 00:17:50;;;;;;;6.90;5.40;;;15.20;99.90;;;;;;5009385;28;20093;-65
2023/08/27 00:20:16;;;;;;;8.10;5.85;;;15.20;99.90;;;;;;5010142;28;20392;-65
2023/08/27 00:22:41;;;;;;;7.90;5.63;;;15.10;99.90;;;;;;5001135;28;20046;-65
2023/08/27 00:25:07;;;;;;;9.15;6.07;;;15.20;99.90;;;;;;4999013;28;20420;-65
2023/08/27 00:27:36;;;;;;;8.00;5.75;;;15.20;99.90;;;;;;5017387;28;20037;-65
2023/08/27 00:30:04;;;;;;;8.40;5.65;;;15.10;99.90;;;;;;5007621;28;20651;-65
2023/08/27 00:32:33;;;;;;;8.25;6.18;;;15.20;99.90;;;;;;4992170;28;20062;-65
2023/08/27 00:34:59;;;;;;;7.45;6.13;;;15.10;99.90;;;;;;5004576;28;20037;-65
2023/08/27 00:37:25;;;;;;;8.90;6.40;;;15.10;99.90;;;;;;4986525;28;20117;-65
2023/08/27 00:39:51;;;;;;;7.82;6.10;;;15.10;99.90;;;;;;5005856;28;20555;-65
2023/08/27 00:42:16;;;;;;;9.43;6.78;;;15.20;99.90;;;;;;4993810;28;20037;-65
2023/08/27 00:44:42;;;;;;;7.75;6.20;;;15.10;99.90;;;;;;5010232;28;20038;-65
2023/08/27 00:47:08;;;;;;;10.07;6.43;;;15.20;99.90;;;;;;5003651;28;20626;-65
2023/08/27 00:49:35;;;;;;;8.00;6.20;;;15.10;99.90;;;;;;5009581;28;20541;-65
2023/08/27 00:52:01;;;;;;;7.78;6.28;;;15.20;99.90;;;;;;5006017;28;20444;-65
2023/08/27 00:54:27;;;;;;;8.75;6.10;;;15.20;99.90;;;;;;4991860;28;20042;-65
2023/08/27 00:56:53;;;;;;;9.07;6.55;;;15.20;99.90;;;;;;5013174;28;20092;-65
2023/08/27 00:59:20;;;;;;;9.70;6.40;;;15.20;99.90;;;;;;5008425;28;20029;-65
2023/08/27 01:01:45;;;;;;;11.10;6.40;;;15.20;99.90;;;;;;5009919;28;20029;-65
2023/08/27 01:04:11;;;;;;;6.70;6.00;;;15.30;99.90;;;;;;5003614;28;20112;-65
2023/08/27 01:06:37;;;;;;;10.18;5.85;;;15.30;99.90;;;;;;5006901;28;20069;-65
2023/08/27 01:09:20;;;;;;;8.02;6.07;;;15.30;99.90;;;;;;5007751;28;20042;-65
2023/08/27 01:12:05;;;;;;;8.68;5.60;;;15.30;99.90;;;;;;5019166;28;20088;-65
2023/08/27 01:14:34;;;;;;;8.20;6.40;;;15.30;99.90;;;;;;5012741;28;20060;-65
2023/08/27 01:17:05;;;;;;;8.77;6.10;;;15.30;99.90;;;;;;4991701;28;20042;-65
2023/08/27 01:19:33;;;;;;;8.93;5.97;;;15.30;99.90;;;;;;5009084;28;20048;-65
2023/08/27 01:21:58;;;;;;;8.02;6.30;;;15.30;99.90;;;;;;5008209;28;20038;-65
2023/08/27 01:24:24;;;;;;;14.07;6.30;;;15.30;99.90;;;;;;5020640;28;20033;-65
2023/08/27 01:27:05;;;;;;;8.95;6.05;;;15.30;99.90;;;;;;5018895;28;20041;-65
2023/08/27 01:29:57;;;;;;;8.48;6.35;;;15.30;99.90;;;;;;5007028;28;20057;-65
2023/08/27 01:34:58;;;;;;;8.82;5.65;;;15.20;99.90;;;;;;5062706;22;20041;-78
2023/08/27 01:37:24;;;;;;;7.55;5.82;;;15.20;99.90;;;;;;5027503;28;20036;-78
2023/08/27 01:40:01;;;;;;;8.77;5.60;;;15.10;99.90;;;;;;5025024;28;20037;-79
2023/08/27 01:42:27;;;;;;;7.03;5.80;;;15.10;99.90;;;;;;5015819;28;20100;-79
2023/08/27 01:44:55;;;;;;;7.78;5.93;;;15.10;99.90;;;;;;5001126;28;20092;-79
2023/08/27 01:47:20;;;;;;;8.45;6.22;;;15.10;99.90;;;;;;5013168;28;20520;-78
2023/08/27 01:49:46;;;;;;;8.27;6.63;;;15.00;99.90;;;;;;4994493;28;20046;-79
2023/08/27 01:52:11;;;;;;;8.00;6.10;;;15.00;99.90;;;;;;5015994;28;20506;-79
2023/08/27 01:54:37;;;;;;;9.25;6.13;;;15.00;99.90;;;;;;4991761;28;20038;-79
2023/08/27 01:57:03;;;;;;;10.10;6.40;;;14.90;99.90;;;;;;5023054;28;20073;-79
2023/08/27 01:59:28;;;;;;;7.57;5.72;;;14.90;99.90;;;;;;5000561;28;20029;-79
2023/08/27 02:01:57;;;;;;;9.07;6.28;;;14.90;99.90;;;;;;5002781;28;20055;-79
2023/08/27 02:04:23;;;;;;;8.90;5.82;;;14.90;99.90;;;;;;4995656;28;20069;-79
2023/08/27 02:06:49;;;;;;;8.10;5.97;;;14.80;99.90;;;;;;4999626;28;20510;-79
2023/08/27 02:09:15;;;;;;;9.77;6.63;;;14.80;99.90;;;;;;5007042;28;20409;-79
2023/08/27 02:11:41;;;;;;;8.93;7.15;;;14.80;99.90;;;;;;5025061;28;20048;-79
2023/08/27 02:14:07;;;;;;;8.23;6.38;;;14.80;99.90;;;;;;5002408;28;20136;-79
2023/08/27 02:16:34;;;;;;;8.73;6.30;;;14.70;99.90;;;;;;4994053;28;20561;-79
2023/08/27 02:19:00;;;;;;;9.05;6.32;;;14.70;99.90;;;;;;4990475;28;20046;-79
2023/08/27 02:21:26;;;;;;;7.28;5.95;;;14.70;99.90;;;;;;4993181;28;20033;-79
2023/08/27 02:23:51;;;;;;;11.30;6.63;;;14.90;99.90;;;;;;5007316;28;20091;-79
2023/08/27 02:26:17;;;;;;;8.43;6.35;;;14.60;99.90;;;;;;4995392;28;20030;-79
2023/08/27 02:28:42;;;;;;;9.32;7.05;;;14.70;99.90;;;;;;5007595;28;20306;-78
2023/08/27 02:31:08;;;;;;;9.13;6.15;;;14.60;99.90;;;;;;4994558;28;20049;-78
2023/08/27 02:33:35;;;;;;;9.60;6.18;;;14.70;99.90;;;;;;5005548;28;20048;-78
2023/08/27 02:36:03;;;;;;;8.65;6.20;;;14.60;99.90;;;;;;5008894;28;20116;-78
2023/08/27 02:38:29;;;;;;;7.72;6.70;;;14.60;99.90;;;;;;5003052;28;20041;-78
2023/08/27 02:40:54;;;;;;;9.10;6.00;;;14.60;99.90;;;;;;5005102;28;20057;-78
2023/08/27 02:43:23;;;;;;;8.73;6.28;;;14.60;99.90;;;;;;4991847;28;20034;-78
2023/08/27 02:45:48;;;;;;;8.68;6.45;;;14.60;99.90;;;;;;4998284;28;20041;-78
2023/08/27 02:48:14;;;;;;;11.35;6.60;;;14.70;99.90;;;;;;4988368;28;20046;-78
2023/08/27 02:50:39;;;;;;;9.15;6.65;;;14.60;99.90;;;;;;5007621;28;20045;-79
2023/08/27 02:53:05;;;;;;;10.70;6.45;;;14.70;99.90;;;;;;4998216;28;20048;-78
2023/08/27 02:55:31;;;;;;;10.68;6.30;;;14.70;99.90;;;;;;5000555;28;20085;-78
2023/08/27 02:57:58;;;;;;;7.95;6.45;;;14.70;99.90;;;;;;5007351;28;20077;-78
2023/08/27 03:00:24;;;;;;;8.38;6.28;;;14.70;99.90;;;;;;4991903;28;20041;-78
2023/08/27 03:02:50;;;;;;;7.95;6.43;;;14.70;99.90;;;;;;4989970;28;20037;-78
2023/08/27 03:05:15;;;;;;;7.75;6.18;;;14.70;99.90;;;;;;4995593;28;20105;-78
2023/08/27 03:07:41;;;;;;;10.30;6.30;;;14.70;99.90;;;;;;4999415;28;20030;-78
2023/08/27 03:10:07;;;;;;;7.82;5.97;;;14.70;99.90;;;;;;5004203;28;20030;-78
2023/08/27 03:12:33;;;;;;;9.38;6.18;;;14.70;99.90;;;;;;5009333;28;20053;-78
2023/08/27 03:14:58;;;;;;;9.93;6.35;;;14.80;99.90;;;;;;4999587;28;20102;-78
2023/08/27 03:17:24;;;;;;;9.90;6.50;;;14.70;99.90;;;;;;4997608;28;20050;-78
2023/08/27 03:19:50;;;;;;;8.43;6.45;;;14.70;99.90;;;;;;4976583;28;20121;-78
2023/08/27 03:22:15;;;;;;;6.78;5.72;;;14.70;99.90;;;;;;4983356;28;20065;-78
2023/08/27 03:24:41;;;;;;;9.52;6.70;;;14.70;99.90;;;;;;4991007;28;20383;-78
2023/08/27 03:27:06;;;;;;;9.23;6.38;;;14.70;99.90;;;;;;5005338;28;20026;-78
2023/08/27 03:29:32;;;;;;;8.18;6.57;;;14.80;99.90;;;;;;4997242;28;20100;-79
2023/08/27 03:31:58;;;;;;;7.72;5.80;;;14.70;99.90;;;;;;4975002;28;20546;-78
2023/08/27 03:34:23;;;;;;;7.07;5.93;;;14.80;99.90;;;;;;5000956;28;20041;-78
2023/08/27 03:36:49;;;;;;;8.45;5.80;;;14.80;99.90;;;;;;5003263;28;20120;-79
2023/08/27 03:39:15;;;;;;;8.77;6.03;;;14.80;99.90;;;;;;4995857;28;20140;-79
2023/08/27 03:41:40;;;;;;;7.55;6.03;;;14.80;99.90;;;;;;5007520;28;20041;-79
2023/08/27 03:44:06;;;;;;;6.65;5.70;;;14.80;99.90;;;;;;4995540;28;20037;-79
2023/08/27 03:46:31;;;;;;;8.10;5.63;;;14.80;99.90;;;;;;4996606;28;20036;-79
2023/08/27 03:49:01;;;;;;;7.35;5.47;;;14.70;99.90;;;;;;4996236;28;20099;-80
2023/08/27 03:51:29;;;;;;;7.25;5.97;;;14.70;99.90;;;;;;4992902;28;20037;-80
2023/08/27 03:53:56;;;;;;;8.40;5.97;;;14.70;99.90;;;;;;4995581;28;20450;-79
2023/08/27 03:56:22;;;;;;;7.60;5.93;;;14.70;99.90;;;;;;5010980;28;20037;-79
2023/08/27 03:58:47;;;;;;;7.82;5.82;;;14.70;99.90;;;;;;4996738;28;20068;-79
2023/08/27 04:01:13;;;;;;;7.07;5.95;;;14.70;99.90;;;;;;4985939;28;20034;-79
2023/08/27 04:03:39;;;;;;;8.32;5.85;;;14.70;99.90;;;;;;5000545;28;20489;-79
2023/08/27 04:06:08;;;;;;;6.90;5.70;;;14.70;99.90;;;;;;5003230;28;20042;-79
2023/08/27 04:08:34;;;;;;;6.50;5.65;;;14.70;99.90;;;;;;5007517;28;20038;-79
2023/08/27 04:11:01;;;;;;;8.23;5.85;;;14.60;99.90;;;;;;4994905;28;20046;-79
2023/08/27 04:13:27;;;;;;;8.77;5.93;;;14.60;99.90;;;;;;4982369;28;20049;-79
2023/08/27 04:15:59;;;;;;;9.25;5.93;;;14.60;99.90;;;;;;5004790;28;20065;-79
2023/08/27 04:18:26;;;;;;;8.30;5.75;;;14.50;99.90;;;;;;5002978;28;20038;-79
2023/08/27 04:20:52;;;;;;;8.00;5.50;;;14.50;99.90;;;;;;4989777;28;20041;-79
2023/08/27 04:23:18;;;;;;;9.43;6.25;;;14.50;99.90;;;;;;5016089;28;20131;-79
2023/08/27 04:25:44;;;;;;;7.18;5.70;;;14.40;99.90;;;;;;4999531;28;20090;-79
2023/08/27 04:28:09;;;;;;;7.22;5.90;;;14.30;99.90;;;;;;4992653;28;20044;-79
2023/08/27 04:30:35;;;;;;;8.02;5.30;;;14.40;99.90;;;;;;4986330;28;20410;-79
2023/08/27 04:33:01;;;;;;;7.13;5.40;;;14.40;99.90;;;;;;5010767;28;20042;-79
2023/08/27 04:35:27;;;;;;;8.55;5.82;;;14.40;99.90;;;;;;5007635;28;20116;-79
2023/08/27 04:37:52;;;;;;;6.43;5.47;;;14.40;99.90;;;;;;5003454;28;20137;-79
2023/08/27 04:40:18;;;;;;;7.47;5.45;;;14.40;99.90;;;;;;5025054;28;20042;-79
2023/08/27 04:42:44;;;;;;;7.75;5.85;;;14.40;99.90;;;;;;4996873;28;20100;-79
2023/08/27 04:45:10;;;;;;;9.45;5.70;;;14.40;99.90;;;;;;5017690;28;20066;-79
2023/08/27 04:47:36;;;;;;;10.48;6.45;;;14.30;99.90;;;;;;5026085;28;20067;-79
2023/08/27 04:50:01;;;;;;;7.28;5.90;;;14.30;99.90;;;;;;5004016;28;20034;-79
2023/08/27 04:52:27;;;;;;;10.70;6.22;;;14.40;99.90;;;;;;4984376;28;20041;-79
2023/08/27 04:54:52;;;;;;;9.27;6.07;;;14.30;99.90;;;;;;4979802;28;20117;-79
2023/08/27 04:57:18;;;;;;;9.38;6.05;;;14.20;99.90;;;;;;4995612;28;20089;-79
2023/08/27 04:59:44;;;;;;;10.50;6.18;;;14.30;99.90;;;;;;5001038;28;20045;-80
2023/08/27 05:02:09;;;;;;;11.10;6.50;;;14.30;99.90;;;;;;4992584;28;20042;-80
2023/08/27 05:04:35;;;;;;;7.85;6.30;;;14.20;99.90;;;;;;5003349;28;20041;-80
2023/08/27 05:07:01;;;;;;;10.52;6.25;;;14.30;99.90;;;;;;5023292;28;20049;-80
2023/08/27 05:09:26;;;;;;;8.15;6.07;;;14.30;99.90;;;;;;4998427;28;20033;-79
2023/08/27 05:11:52;;;;;;;8.93;6.53;;;14.30;99.90;;;;;;5016249;28;20533;-81
2023/08/27 05:14:18;;;;;;;11.55;6.22;;;14.30;99.90;;;;;;4995806;28;20064;-81
2023/08/27 05:16:44;;;;;;;9.20;6.28;;;14.30;99.90;;;;;;4999321;28;20072;-79
2023/08/27 05:19:09;;;;;;;9.07;6.60;;;14.30;99.90;;;;;;5005522;28;20080;-80
2023/08/27 05:21:35;;;;;;;8.52;6.47;;;14.40;99.90;;;;;;4996632;28;20034;-79
2023/08/27 05:24:01;;;;;;;7.97;6.30;;;14.30;99.90;;;;;;5006066;28;20037;-79
2023/08/27 05:26:27;;;;;;;11.10;6.43;;;14.40;99.90;;;;;;4989147;28;20180;-79
2023/08/27 05:28:52;;;;;;;11.57;7.22;;;14.50;99.90;;;;;;4998550;28;20034;-81
2023/08/27 05:31:18;;;;;;;8.73;6.72;;;14.50;99.90;;;;;;5000619;28;20677;-80
2023/08/27 05:33:44;;;;;;;8.38;6.55;;;14.50;99.90;;;;;;5000250;28;20129;-80
2023/08/27 05:36:09;;;;;;;11.50;7.22;;;14.50;99.90;;;;;;4987976;28;20041;-79
2023/08/27 05:38:35;;;;;;;11.15;7.07;;;14.50;99.90;;;;;;5003491;28;20140;-79
2023/08/27 05:41:01;;;;;;;11.07;6.28;;;14.50;99.90;;;;;;4990333;28;20069;-81
2023/08/27 05:43:26;;;;;;;10.48;6.45;;;14.50;99.90;;;;;;4991358;28;20112;-80
2023/08/27 05:45:52;;;;;;;13.32;6.68;;;14.50;99.90;;;;;;4993879;28;20034;-81
2023/08/27 05:48:18;;;;;;;9.50;6.93;;;14.40;99.90;;;;;;4987891;28;20396;-80
2023/08/27 05:50:44;;;;;;;15.10;6.68;;;14.50;99.90;;;;;;5008737;28;20455;-79
2023/08/27 05:53:11;;;;;;;11.52;6.65;;;14.60;99.90;;;;;;5004700;28;20049;-79
2023/08/27 05:55:36;;;;;;;10.23;6.80;;;14.50;99.90;;;;;;5004587;28;20048;-79
2023/08/27 05:58:03;;;;;;;8.70;6.25;;;14.50;99.90;;;;;;4983169;28;20478;-78
2023/08/27 06:00:29;;;;;;;12.00;6.78;;;14.60;99.90;;;;;;4994966;28;20065;-79
2023/08/27 06:02:55;;;;;;;9.68;6.28;;;14.60;99.90;;;;;;4996665;28;20486;-79
2023/08/27 06:05:20;;;;;;;9.40;6.13;;;14.60;99.90;;;;;;4987646;28;20038;-79
2023/08/27 06:07:46;;;;;;;13.02;6.25;;;14.60;99.90;;;;;;4978173;28;20163;-80
2023/08/27 06:10:11;;;;;;;10.13;6.07;;;14.60;99.90;;;;;;4987423;28;20041;-80
2023/08/27 06:12:37;;;;;;;8.30;5.78;;;14.60;99.90;;;;;;5008257;28;20124;-80
2023/08/27 06:15:04;;;;;;;8.30;5.90;;;14.80;99.90;;;;;;4999602;28;20454;-81
2023/08/27 06:17:30;;;;;;;9.65;6.10;;;14.60;99.90;;;;;;5002674;28;20052;-83
2023/08/27 06:19:55;;;;;;;9.02;5.22;;;14.70;99.90;;;;;;4991298;28;20107;-82
2023/08/27 06:22:21;;;;;;;9.00;5.80;;;14.70;99.90;;;;;;4982251;28;20045;-81
2023/08/27 06:24:47;;;;;;;9.32;5.93;;;14.70;99.90;;;;;;4993671;28;20108;-81
2023/08/27 06:27:14;;;;;;;8.95;5.45;;;14.70;99.90;;;;;;5009705;28;20045;-81
2023/08/27 06:29:43;;;;;;;9.10;5.55;;;14.80;99.90;;;;;;5011695;28;20037;-81
2023/08/27 06:32:09;;;;;;;9.65;5.47;;;14.80;99.90;;;;;;4998618;28;20453;-81
2023/08/27 06:34:34;;;;;;;8.57;5.70;;;14.90;99.90;;;;;;4995313;28;20110;-81
2023/08/27 06:37:00;;;;;;;10.52;5.53;;;14.80;99.90;;;;;;5002828;28;20058;-80
2023/08/27 06:39:25;;;;;;;8.73;5.30;;;14.90;99.90;;;;;;4996136;28;20045;-80
2023/08/27 06:41:52;;;;;;;8.10;5.32;;;14.80;99.90;;;;;;5021214;28;20042;-80
2023/08/27 06:44:19;;;;;;;7.95;5.13;;;14.90;99.90;;;;;;4996882;28;20116;-80
2023/08/27 06:46:45;;;;;;;7.53;4.63;;;14.90;99.90;;;;;;4989209;28;20053;-80
2023/08/27 06:49:10;;;;;;;7.35;5.03;;;15.00;99.90;;;;;;4994222;28;20042;-80
2023/08/27 06:51:36;;;;;;;6.80;5.07;;;15.00;99.90;;;;;;5024368;28;20033;-79
2023/08/27 06:54:03;;;;;;;6.10;4.80;;;15.00;99.90;;;;;;4993643;28;20042;-79
2023/08/27 06:56:29;;;;;;;6.05;4.57;;;15.00;99.90;;;;;;4988648;28;20056;-81
2023/08/27 06:58:54;;;;;;;9.55;5.20;;;15.10;99.90;;;;;;4995126;28;20125;-79
2023/08/27 07:01:20;;;;;;;7.90;4.90;;;15.20;99.90;;;;;;5007500;28;20124;-79
2023/08/27 07:03:45;;;;;;;6.32;4.60;;;15.20;99.90;;;;;;4988341;28;20038;-79
2023/08/27 07:06:11;;;;;;;6.13;4.13;;;15.20;99.90;;;;;;4996281;28;20111;-80
2023/08/27 07:08:37;;;;;;;7.15;4.18;;;15.20;99.90;;;;;;5000897;28;20036;-80
2023/08/27 07:11:05;;;;;;;7.65;4.20;;;15.20;99.90;;;;;;4997477;28;20046;-79
2023/08/27 07:13:31;;;;;;;6.28;4.45;;;15.20;99.90;;;;;;4992397;28;20096;-79
2023/08/27 07:15:59;;;;;;;6.32;4.28;;;15.10;99.90;;;;;;4986111;28;20065;-79
2023/08/27 07:18:25;;;;;;;5.35;3.60;;;15.10;99.90;;;;;;4992901;28;20037;-80
2023/08/27 07:20:51;;;;;;;5.60;4.13;;;15.10;99.90;;;;;;4985677;28;20470;-80
2023/08/27 07:23:16;;;;;;;9.63;4.22;;;15.10;99.90;;;;;;4996221;28;20109;-80
2023/08/27 07:25:42;;;;;;;8.98;3.75;;;15.10;99.90;;;;;;4994490;28;20108;-80
2023/08/27 07:28:09;;;;;;;5.25;3.90;;;15.10;99.90;;;;;;4995697;28;20401;-82
2023/08/27 07:30:36;;;;;;;6.28;4.07;;;15.10;99.90;;;;;;5004132;28;20038;-80
2023/08/27 07:33:03;;;;;;;6.22;4.00;;;15.10;99.90;;;;;;5002530;22;20034;-74
2023/08/27 07:39:14;;;;;;;5.47;4.00;;;15.20;99.90;;;;;;5016750;28;20103;-75
2023/08/27 07:41:45;;;;;;;7.80;3.72;;;15.20;99.90;;;;;;5003302;28;20038;-76
2023/08/27 07:44:11;;;;;;;5.78;3.63;;;15.40;99.90;;;;;;4993318;28;20127;-77
2023/08/27 07:50:07;;;;;;;5.40;3.60;;;15.20;99.90;;;;;;5016303;28;20120;-77
2023/08/27 07:52:33;;;;;;;6.80;3.90;;;15.10;99.90;;;;;;4981249;28;20042;-77
2023/08/27 07:55:31;;;;;;;6.10;3.85;;;15.10;99.90;;;;;;4996227;28;20452;-74
2023/08/27 07:58:36;;;;;;;5.90;3.95;;;15.20;99.90;;;;;;4989332;28;20038;-79
2023/08/27 08:01:26;;;;;;;5.65;3.28;;;14.80;99.90;;;;;;4991353;28;20068;-77
2023/08/27 08:03:52;;;;;;;6.63;4.00;;;15.30;99.90;;;;;;4971830;28;20038;-78
2023/08/27 08:10:36;;;;;;;6.22;3.90;;;15.30;99.90;;;;;;5010598;28;20599;-77
2023/08/27 08:17:29;;;;;;;6.05;4.13;;;15.40;99.90;;;;;;5021301;28;20041;-77
2023/08/27 08:24:01;;;;;;;;;;;15.50;99.90;;;;;;4949579;28;20105;-77
2023/08/27 08:34:21;;;;;;;7.00;5.00;;;16.00;99.90;;;;;;4995620;28;20046;-78
2023/08/27 08:37:19;;;;;;;6.90;4.63;;;16.00;99.90;;;;;;4998369;28;20074;-78
2023/08/27 08:39:58;;;;;;;10.20;5.00;;;16.00;99.90;;;;;;4959489;28;20406;-78
2023/08/27 08:42:43;;;;;;;7.72;5.25;;;16.00;99.90;;;;;;4996841;28;20042;-78
2023/08/27 08:48:55;;;;;;;8.32;4.30;;;16.30;99.90;;;;;;5010788;28;20037;-78
2023/08/27 08:55:08;;;;;;;7.70;5.25;;;16.70;99.90;;;;;;5018565;28;20057;-79
2023/08/27 09:01:29;;;;;;;12.90;6.20;;;17.20;99.90;;;;;;4985707;28;20037;-74
2023/08/27 09:03:56;;;;;;;11.57;6.18;;;17.50;99.90;;;;;;5021150;28;20053;-78
2023/08/27 09:06:24;;;;;;;7.22;5.72;;;17.60;99.90;;;;;;4991218;28;20037;-79
2023/08/27 09:09:16;;;;;;;9.50;6.65;;;17.80;99.90;;;;;;4988658;28;20034;-80
2023/08/27 09:12:21;;;;;;;10.38;5.80;;;18.00;99.90;;;;;;4996087;28;20046;-79
2023/08/27 09:15:34;;;;;;;11.90;6.70;;;18.20;99.90;;;;;;5010472;28;20120;-80
2023/08/27 09:18:41;;;;;;;8.23;6.50;;;18.30;99.90;;;;;;5010418;28;20065;-78
2023/08/27 09:21:24;;;;;;;10.75;6.70;;;18.50;99.90;;;;;;5015532;28;20124;-78
2023/08/27 09:24:29;;;;;;;9.48;6.30;;;18.50;99.90;;;;;;4982960;28;20091;-79
2023/08/27 09:27:15;;;;;;;7.47;5.50;;;18.70;99.90;;;;;;5001475;28;20055;-78
2023/08/27 09:29:54;;;;;;;9.73;5.82;;;18.70;99.90;;;;;;4982241;28;20045;-79
2023/08/27 09:32:24;;;;;;;7.90;6.10;;;18.60;99.90;;;;;;4995883;28;20050;-79
2023/08/27 09:35:21;;;;;;;9.02;5.60;;;18.50;99.90;;;;;;4972281;28;20512;-79
2023/08/27 09:39:15;;;;;;;11.32;5.10;;;18.70;99.90;;;;;;5011463;28;20048;-80
2023/08/27 09:41:45;;;;;;;11.52;5.75;;;18.90;99.90;;;;;;4995272;28;20530;-78
2023/08/27 09:44:12;;;;;;;8.27;5.30;;;19.00;99.90;;;;;;5005344;28;20045;-78
2023/08/27 09:50:08;;;;;;;;;;;19.40;99.90;;;;;;5015835;28;19917;-79
2023/08/27 09:52:36;;;;;;;6.68;4.90;;;19.60;99.90;;;;;;4995603;28;19929;-78
2023/08/27 09:55:31;;;;;;;6.82;5.13;;;19.70;99.90;;;;;;4996156;28;20042;-77
2023/08/27 09:58:15;;;;;;;7.45;4.95;;;19.50;99.90;;;;;;4995536;28;20038;-77
2023/08/27 10:00:42;;;;;;;;;;;19.40;99.90;;;;;;4992368;28;20042;-77
2023/08/27 10:03:12;;;;;;;7.50;4.93;;;19.20;99.90;;;;;;4990877;28;19972;-77
2023/08/27 10:05:38;;;;;;;8.48;5.20;;;19.20;99.90;;;;;;5007873;28;20584;-78
2023/08/27 10:08:05;;;;;;;7.78;5.30;;;19.10;99.90;;;;;;4989994;28;20050;-78
2023/08/27 10:11:02;;;;;;;7.28;4.40;;;19.20;99.90;;;;;;4983467;28;20124;-78
2023/08/27 10:14:53;;;;;;;6.88;4.97;;;19.20;99.90;;;;;;5018808;28;20104;-78
2023/08/27 10:19:01;;;;;;;8.55;4.50;;;19.10;99.90;;;;;;5008084;28;20393;-78
2023/08/27 10:22:25;;;;;;;7.20;4.97;;;18.90;99.90;;;;;;5011931;28;20044;-78
2023/08/27 10:25:19;;;;;;;6.32;4.35;;;18.70;99.90;;;;;;5012680;28;20041;-77
2023/08/27 10:27:52;;;;;;;6.60;4.35;;;18.60;99.90;;;;;;5012680;28;20044;-77
2023/08/27 10:30:18;;;;;;;8.23;4.93;;;18.50;99.90;;;;;;4982195;28;20129;-78
2023/08/27 10:32:45;;;;;;;8.38;4.60;;;18.50;99.90;;;;;;4986387;28;20033;-78
2023/08/27 10:35:11;;;;;;;6.93;4.20;;;18.50;99.90;;;;;;5007295;28;20052;-77
2023/08/27 10:40:51;;;;;;;7.00;4.07;;;18.50;99.90;;;;;;5006283;28;20286;-77
2023/08/27 10:43:20;;;;;;;7.88;4.32;;;18.40;99.90;;;;;;4996473;28;20041;-77
2023/08/27 10:45:49;;;;;;;7.78;4.38;;;18.40;99.90;;;;;;4997134;28;20505;-77
2023/08/27 10:48:18;;;;;;;9.68;4.75;;;18.50;99.90;;;;;;4992468;28;20037;-77
2023/08/27 10:50:49;;;;;;;7.03;4.38;;;18.50;99.90;;;;;;4995487;28;20435;-77
2023/08/27 10:53:50;;;;;;;10.48;4.57;;;18.60;99.90;;;;;;5006699;28;20038;-77
2023/08/27 10:57:28;;;;;;;7.95;4.85;;;18.70;99.90;;;;;;4998004;28;20510;-77
2023/08/27 11:01:04;;;;;;;6.28;4.50;;;18.70;99.90;;;;;;4971144;28;20037;-77
2023/08/27 11:03:56;;;;;;;9.07;4.72;;;18.70;99.90;;;;;;5000815;28;20030;-78
2023/08/27 11:06:40;;;;;;;7.68;4.35;;;18.70;99.90;;;;;;5002520;28;20089;-77
2023/08/27 11:09:20;;;;;;;10.30;4.30;;;18.70;99.90;;;;;;4997531;28;20038;-77
2023/08/27 11:12:20;;;;;;;6.28;4.28;;;18.80;99.90;;;;;;5001342;28;20041;-77
2023/08/27 11:14:46;;;;;;;8.98;3.65;;;18.90;99.90;;;;;;5000124;28;20034;-77
2023/08/27 11:17:26;;;;;;;6.72;3.90;;;19.00;99.90;;;;;;5082804;28;21037;-62
2023/08/27 11:19:55;;;;;;;7.47;3.92;;;19.00;99.90;;;;;;5066005;28;21326;-63
2023/08/27 11:22:22;;;;;;;22.02;5.53;;;19.00;99.90;;;;;;5060653;28;20036;-64
2023/08/27 11:24:50;;;;;;;16.52;6.13;;;18.90;99.90;;;;;;5057525;28;20132;-63
2023/08/27 11:27:18;;;;;;;14.40;5.75;;;18.60;99.90;;;;;;5056493;28;20402;-62
2023/08/27 11:29:52;;;;;;;11.85;5.60;;;18.30;99.90;;;;;;5057852;28;20029;-63
2023/08/27 11:32:19;;;;;;;9.68;5.40;;;18.00;99.90;;;;;;5065311;28;20514;-63
2023/08/27 11:34:46;;;;;;;8.27;5.50;;;17.80;99.90;;;;;;5052524;28;20040;-62
2023/08/27 11:37:12;;;;;;;11.55;5.45;;;17.50;99.90;;;;;;5064700;28;20124;-62
2023/08/27 11:39:39;;;;;;;12.57;4.90;;;17.20;99.90;;;;;;5064551;28;20379;-62
2023/08/27 11:42:12;;;;;;;8.77;4.55;;;17.00;99.90;;;;;;5057595;28;20048;-62
2023/08/27 11:44:52;;;;;;;8.93;4.70;;;16.70;99.90;;;;;;5059682;28;20047;-62
2023/08/27 11:47:19;;;;;;;4.97;4.00;;;16.60;99.90;;;;;;5062826;28;20494;-61
2023/08/27 11:49:45;;;;;;;7.05;4.70;;;16.50;99.90;;;;;;5064143;28;20033;-63
2023/08/27 11:52:14;;;;;;;7.25;4.45;;;16.40;99.90;;;;;;5062695;28;20047;-60
2023/08/27 11:54:41;;;;;;;8.57;5.40;;;16.30;99.90;;;;;;5067758;28;20037;-60
2023/08/27 11:57:08;;;;;;;10.25;6.03;;;16.30;99.90;;;;;;5057600;28;20128;-61
2023/08/27 11:59:33;;;;;;;10.65;6.38;;;16.30;99.90;;;;;;5069046;28;20554;-61
2023/08/27 12:02:02;;;;;;;8.90;5.85;;;16.40;99.90;;;;;;5065311;28;20116;-61
2023/08/27 12:04:28;;;;;;;9.57;7.30;;;16.60;99.90;;;;;;5066441;28;20202;-63
2023/08/27 12:06:59;;;;;;;11.15;7.82;;;16.90;99.90;;;;;;5066789;28;20515;-63
2023/08/27 12:09:28;;;;;;;9.13;8.13;;;17.20;99.90;;;;;;5039100;28;20346;-60
2023/08/27 12:11:57;;;;;;;10.98;8.88;;;17.50;99.90;;;;;;5064574;28;20524;-65
2023/08/27 12:14:24;;;;;;;11.50;9.93;;;17.70;99.90;;;;;;5063934;28;20040;-60
2023/08/27 12:16:51;;;;;;;11.30;9.52;;;17.70;99.90;;;;;;5069660;28;20037;-64
2023/08/27 12:19:19;;;;;;;11.20;9.82;;;17.70;99.90;;;;;;5065603;28;20061;-61
2023/08/27 12:21:51;;;;;;;13.38;10.27;;;17.70;99.90;;;;;;5064729;28;20150;-61
2023/08/27 12:24:39;;;;;;;12.27;10.07;;;17.60;99.90;;;;;;5065574;28;20036;-65
2023/08/27 12:27:06;;;;;;;10.50;8.70;;;17.50;99.90;;;;;;5060539;28;20349;-62
2023/08/27 12:29:37;;;;;;;7.13;5.53;;;17.40;99.90;;;;;;5050919;28;20048;-62
2023/08/27 12:32:16;;;;;;;5.55;3.85;;;17.30;99.90;;;;;;5050815;28;20079;-66
2023/08/27 12:34:46;;;;;;;5.78;3.65;;;17.30;99.90;;;;;;5051525;28;20040;-62
2023/08/27 12:37:13;;;;;;;6.35;3.70;;;17.20;99.90;;;;;;5050276;28;20124;-62
2023/08/27 12:39:41;;;;;;;5.53;3.58;;;17.30;99.90;;;;;;5051588;28;20417;-66
2023/08/27 12:42:07;;;;;;;5.70;3.97;;;17.20;99.90;;;;;;5051980;28;20039;-62
2023/08/27 12:44:34;;;;;;;5.65;3.67;;;17.20;99.90;;;;;;5052623;28;20072;-64
2023/08/27 12:47:01;;;;;;;5.03;3.22;;;17.30;99.90;;;;;;5050521;28;20506;-64
2023/08/27 12:49:28;;;;;;;4.15;3.50;;;17.30;99.90;;;;;;5051731;28;20064;-64
2023/08/27 12:51:53;;;;;;;6.78;4.10;;;17.30;99.90;;;;;;5054353;28;20048;-64
2023/08/27 12:54:20;;;;;;;7.88;4.20;;;17.30;99.90;;;;;;5052978;28;20392;-64
2023/08/27 12:56:46;;;;;;;5.22;3.90;;;17.30;99.90;;;;;;5052346;28;20041;-64
2023/08/27 12:59:12;;;;;;;6.45;3.90;;;17.30;99.90;;;;;;5049108;28;20055;-64
2023/08/27 13:01:41;;;;;;;5.25;4.50;;;17.30;99.90;;;;;;5051302;28;20037;-64
2023/08/27 13:04:07;;;;;;;5.57;4.50;;;17.30;99.90;;;;;;5051587;28;20044;-64
2023/08/27 13:06:34;;;;;;;5.68;4.30;;;17.30;99.90;;;;;;5050809;28;20076;-64
2023/08/27 13:09:00;;;;;;;5.72;4.53;;;17.30;99.90;;;;;;5051456;28;20033;-63
2023/08/27 13:11:26;;;;;;;6.50;5.45;;;17.30;99.90;;;;;;5052286;28;20058;-63
2023/08/27 13:13:52;;;;;;;6.40;5.10;;;17.40;99.90;;;;;;5049699;28;20029;-63
2023/08/27 13:16:17;;;;;;;7.07;5.50;;;17.40;99.90;;;;;;5051471;28;20037;-65
2023/08/27 13:18:43;;;;;;;8.13;5.65;;;17.40;99.90;;;;;;5051700;28;20512;-64
2023/08/27 13:21:09;;;;;;;7.63;5.10;;;17.40;99.90;;;;;;5051672;28;20033;-64
2023/08/27 13:23:34;;;;;;;5.68;5.07;;;17.30;99.90;;;;;;5050677;28;20103;-64
2023/08/27 13:26:00;;;;;;;5.68;4.60;;;17.30;99.90;;;;;;5051300;28;20158;-63
2023/08/27 13:28:26;;;;;;;5.68;4.90;;;17.40;99.90;;;;;;5049366;28;20487;-64
2023/08/27 13:30:52;;;;;;;7.40;5.35;;;17.50;99.90;;;;;;5050479;28;20049;-64
2023/08/27 13:33:18;;;;;;;6.68;5.15;;;17.60;99.90;;;;;;5050966;28;21467;-65
2023/08/27 13:35:44;;;;;;;5.35;4.57;;;17.80;99.90;;;;;;5050265;28;20068;-64
2023/08/27 13:38:10;;;;;;;6.47;5.00;;;17.90;99.90;;;;;;5050589;28;20511;-64
2023/08/27 13:40:36;;;;;;;5.53;4.38;;;17.90;99.90;;;;;;5050900;28;20491;-63
2023/08/27 13:43:02;;;;;;;5.47;3.95;;;17.90;99.90;;;;;;5049947;28;20098;-64
2023/08/27 13:45:27;;;;;;;5.95;4.10;;;17.90;99.90;;;;;;5051100;28;20094;-64
2023/08/27 13:47:53;;;;;;;5.53;4.22;;;17.90;99.90;;;;;;5048306;28;20044;-64
2023/08/27 13:50:19;;;;;;;6.55;4.85;;;17.90;99.90;;;;;;5049756;28;20461;-64